Аэропорт: Сыктывкар. Сыктывкар

ICAO: UUYY

METAR:
2020-10-24 05:30:00
UUYY 240530Z 15003MPS 2400 -SN SCT010 OVC017 M03/M03 Q0994 R18/490533 TEMPO 1000 SN RMK QFE737/0983
METAR:
2020-10-24 02:00:00
TAF UUYY 240200Z 2403/2503 14004G09MPS 2000 SN BR BKN005 TEMPO 2403/2409 16004G10MPS 0700 +SHSN FZRA BKN003 BKN011CB FM240900 18003G08MPS 3100 -SHSN BR BKN005 BKN015CB TEMPO 2409/2418 23003G08MPS 1000 SHRASN BR BKN003 BKN011CB FM241800 28003G09MPS 6000 -SHSN FEW005 BKN011CB